Denzel Timber

Olheiro-Chefe - ADO Den Haag
3 Dez 2028
Domingo
Processo

Personalidade

Adaptabilidade (16) Ambição (15) Controvérsia (4) Lealdade (10) Pressão (7) Profissionalismo (4) Espírito Esportivo (1) Temperamento (8)

Perfil

Estilo de Treinamento Democrático
Licença Nacional B
Determinação 4
Gestão de Pessoas 9
Motivação 10
Disciplina 11
Satisfação no Trabalho
100%
Fadiga
0%
Função Olheiro-Chefe
Salário 23.9K p/s
Contrato 14.03.2029

Desempenho

Comportamento Bom
Eficácia do Treinamento
48%
Desenvolvimento do Jogador
40%
Prevenção de Lesões
40%
Implementação Tática
60%

Eventos Recentes

Participou de uma reunião de recrutamento agora
Recomendou um alvo de transferência agora
Recomendou um alvo de transferência agora
Participou de uma reunião de recrutamento 7d atrás
Recomendou um alvo de transferência 7d atrás
Recomendou um alvo de transferência 7d atrás
Recomendou um alvo de transferência 7d atrás
Recomendou um alvo de transferência 7d atrás

Monitorando agora

97
Jogador Clube Status Habilidade Confiança Observado Última observação Último voto
Rayan Zekri AZ Relatório pronto 102 / 116 69% 1 28.08.2028 -
Furkan Ulutaş Feyenoord Relatório pronto 101 / 112 69% 1 17.07.2028 -
Matyáš Havelka Utrecht Relatório pronto 113 / 111 69% 1 03.07.2028 -
Kayden Wolff Ajax Negociando 109 / 116 70% 1 01.06.2028 -
Mao Hosoya Santos Ativo 134 / 135 67% 1 01.01.2028 Aprovar
Matěj Ryneš AS Nancy Ativo 122 / 123 67% 1 01.01.2028 -
Tobias Mohr Farense Ativo 117 / 117 68% 1 01.01.2028 -
Matthew Mparaganda Feyenoord Ativo 105 / 114 62% 1 19.07.2027 Aprovar
Scott Twine Bristol City Ativo 131 / 118 40% 1 30.05.2027 -
Mohamed-Ali Cho Hull City Ativo 137 / 141 40% 3 27.05.2027 -
Brooke Norton-Cuffy Hull City Ativo 139 / 131 40% 1 26.05.2027 -
Omar El Hilali Espanyol Ativo 145 / 154 40% 1 26.05.2027 -
Tyrhys Dolan Espanyol Ativo 138 / 143 40% 3 24.05.2027 -
Ali Ahmed Norwich City Ativo 121 / 123 40% 1 24.05.2027 -
Chemsdine Talbi Sunderland Ativo 136 / 145 40% 1 23.05.2027 -
Sorriso Famalicao Ativo 133 / 128 40% 3 22.05.2027 -
Mitchel Bakker Modena Ativo 140 / 122 40% 3 22.05.2027 -
Andrés Martín Racing Santander Ativo 137 / 136 40% 6 21.05.2027 -
Malik Mothersille Stockport County Ativo 115 / 109 40% 1 21.05.2027 -
Ilias Sebaoui Sint-Truiden Ativo 136 / 133 40% 4 18.05.2027 -
Timothy Witsel FC Metz Ativo 125 / 136 40% 6 17.05.2027 -
Adrián Niño Málaga Ativo 114 / 125 40% 1 17.05.2027 -
Jack Rudoni Coventry City Ativo 140 / 136 40% 2 15.05.2027 -
Milan van Ewijk Coventry City Ativo 136 / 138 40% 1 13.05.2027 -
Bobby Clark Derby County Ativo 131 / 123 40% 1 12.05.2027 -
Malick Mbaye Zulte Waregem Ativo 112 / 119 40% 2 10.05.2027 -
Pablo Torre Mallorca Ativo 151 / 143 40% 2 09.05.2027 -
Arnau Puigmal Mallorca Ativo 125 / 134 40% 1 01.05.2027 -
Thibaud Verlinden OH Leuven Ativo 125 / 121 40% 1 28.04.2027 -
Sylvester Jasper Standard Liege Ativo 118 / 120 40% 2 27.04.2027 -
Joe Gelhardt Hull City Ativo 126 / 135 40% 5 26.04.2027 -
Mario Soriano Deportivo La Coruña Ativo 132 / 123 40% 1 22.04.2027 -
Aimar Osasuna Ativo 146 / 144 40% 2 16.04.2027 -
Samuel Edozie Southampton Ativo 131 / 125 40% 1 16.04.2027 -
David Larrubia Málaga Ativo 131 / 122 40% 2 14.04.2027 -
Jason Knight Bristol City Ativo 137 / 130 40% 1 14.04.2027 -
Jonathan Dubasin Osasuna Ativo 147 / 139 40% 2 12.04.2027 -
Amine Adli Bournemouth Ativo 151 / 148 40% 1 11.04.2027 -
Daan Rots Twente Ativo 130 / 124 40% 1 09.04.2027 -
Derensili Sanches Fernandes Huddersfield Town Ativo 119 / 128 40% 1 05.04.2027 -
Thomas Claes Zulte Waregem Ativo 125 / 127 40% 1 05.04.2027 -
Max Johnston Derby County Ativo 128 / 120 40% 2 04.04.2027 -
Ilyas Ansah Hull City Ativo 136 / 136 40% 1 04.04.2027 -
Ringo Meerveld Heerenveen Ativo 131 / 124 40% 1 03.04.2027 -
Bongani Zungu Ajax Cape Town Ativo 143 / 131 40% 2 02.04.2027 -
Kwadwo Baah Watford Ativo 131 / 132 40% 1 01.04.2027 -
Isaiah Jones Luton Town Ativo 133 / 118 40% 1 30.03.2027 -
Nayel Mehssatou KV Kortrijk Ativo 123 / 116 40% 1 28.03.2027 -
Manu Pozo Torreense Ativo 114 / 113 40% 1 21.03.2027 -
Ilyes Najim Waasland-Beveren Ativo 107 / 110 40% 2 18.03.2027 -
Yaimar Medina Racing Genk Ativo 128 / 121 40% 2 16.03.2027 -
Aimé Omgba KAA Gent Ativo 133 / 120 40% 1 16.03.2027 -
Marley Aké Zulte Waregem Ativo 119 / 109 40% 1 15.03.2027 -
Gaspar Gijón Ativo 138 / 134 40% 2 13.03.2027 -
Matisse Samoise KAA Gent Ativo 114 / 114 40% 1 12.03.2027 -
Jeppe Erenbjerg Racing Genk Ativo 122 / 112 40% 1 12.03.2027 -
Wilson Isidor Sunderland Ativo 145 / 134 40% 1 09.03.2027 -
Justo Giani Umraniyespor Ativo 126 / 130 40% 2 03.03.2027 -
Lucas Beerten Roda Ativo 102 / 115 62% 1 07.01.2027 Aprovar
Sampson Dweh Mallorca Ativo 133 / 134 66% 1 01.01.2027 Aprovar
Rodrigo Muniz Fulham Ativo 129 / 142 40% 1 27.12.2026 -
Chukwubuikem Ikwuemesi OH Leuven Ativo 112 / 120 40% 4 24.12.2026 -
Tyrese Campbell Sheffield United Ativo 136 / 123 40% 2 24.12.2026 -
Youssoufa Moukoko FC Copenhagen Ativo 136 / 125 40% 1 15.12.2026 -
Lorenzo Colombo Genoa Ativo 141 / 134 40% 1 13.12.2026 -
Koen Kostons Zwolle Ativo 123 / 110 40% 1 12.12.2026 -
Mike Eerdhuijzen KV Mechelen Ativo 119 / 119 40% 2 07.12.2026 -
Ricardo Echeverría Santos Laguna Ativo 121 / 109 40% 1 07.12.2026 -
Eddie Nketiah Crystal Palace Ativo 143 / 139 40% 1 03.12.2026 -
Josh Coburn Millwall Ativo 108 / 112 40% 1 03.12.2026 -
Yousef Salech Cardiff City Ativo 130 / 118 40% 1 30.11.2026 -
Dylan Vente Heerenveen Ativo 107 / 125 40% 2 29.11.2026 -
Rafiu Durosinmi Racing Genk Ativo 137 / 137 40% 2 25.11.2026 -
Nicolò Zaniolo Udinese Ativo 152 / 142 40% 1 24.11.2026 -
Nicolò Tresoldi Club Brugge Ativo 140 / 137 40% 1 21.11.2026 -
Anselmo García Mac Nulty Hellas Verona Ativo 113 / 117 40% 1 21.11.2026 -
Kevin Amaro Racing Genk Ativo 122 / 133 40% 1 21.11.2026 -
Botond Balogh Westerlo Ativo 114 / 130 40% 1 20.11.2026 -
Ryotaro Araki Sint-Truiden Ativo 124 / 122 40% 1 14.11.2026 -
Fiete Arp OB Ativo 127 / 121 40% 1 13.11.2026 -
Pau Víctor Braga Ativo 142 / 135 40% 1 11.11.2026 -
Yanis Begraoui Estoril Praia Ativo 124 / 135 40% 1 07.11.2026 -
Taiga Hata Sint-Truiden Ativo 120 / 113 40% 1 07.11.2026 -
Isa Sakamoto Westerlo Ativo 110 / 119 40% 1 04.11.2026 -
Oscar Gloukh Ajax Ativo 141 / 130 40% 2 02.11.2026 -
Armstrong Oko-Flex Levski Ativo 115 / 107 40% 1 01.11.2026 -
Rafael Navarro Famalicao Ativo 123 / 119 40% 1 01.11.2026 -
Alejandro Piedrahita Deportivo Pereira Ativo 124 / 112 40% 2 30.10.2026 -
Mexx Meerdink AZ Ativo 135 / 132 40% 1 25.10.2026 -
Kévin Denkey FC Cincinnati Ativo 134 / 140 40% 1 23.10.2026 -
Wessam Abou Ali Columbus Crew Ativo 139 / 120 40% 1 17.10.2026 -
Talles Magno New York City Ativo 123 / 119 40% 1 14.10.2026 -
Favio Cabral Mitre Ativo 121 / 105 40% 1 08.10.2026 -
Mardochée Nzita Charleroi Ativo 108 / 113 40% 1 07.10.2026 -
Marco Kana Anderlecht Ativo 127 / 124 40% 1 07.10.2026 -
Jan Virgili Club Brugge Ativo 127 / 133 40% 1 08.09.2026 -
Erik Lira Cruz Azul Ativo 133 / 121 40% 1 07.09.2026 -